sensor_id;sensor_type;location;lat;lon;timestamp;P1;durP1;ratioP1;P2;durP2;ratioP2
37131;SDS011;23035;50.032;21.978;2024-01-16T00:02:33;14.23;;;7.07;;
37131;SDS011;23035;50.032;21.978;2024-01-16T00:07:38;14.82;;;6.55;;
37131;SDS011;23035;50.032;21.978;2024-01-16T00:12:46;14.45;;;7.20;;
37131;SDS011;23035;50.032;21.978;2024-01-16T00:17:50;14.40;;;7.07;;
37131;SDS011;23035;50.032;21.978;2024-01-16T00:28:02;22.45;;;7.63;;
37131;SDS011;23035;50.032;21.978;2024-01-16T00:33:07;12.75;;;6.47;;
37131;SDS011;23035;50.032;21.978;2024-01-16T00:38:13;18.63;;;6.78;;
37131;SDS011;23035;50.032;21.978;2024-01-16T00:43:18;12.02;;;6.50;;
37131;SDS011;23035;50.032;21.978;2024-01-16T00:48:23;12.10;;;6.13;;
37131;SDS011;23035;50.032;21.978;2024-01-16T00:53:29;13.27;;;7.68;;
37131;SDS011;23035;50.032;21.978;2024-01-16T00:58:35;15.43;;;6.50;;
37131;SDS011;23035;50.032;21.978;2024-01-16T01:03:40;12.25;;;6.35;;
37131;SDS011;23035;50.032;21.978;2024-01-16T01:08:45;15.63;;;6.13;;
37131;SDS011;23035;50.032;21.978;2024-01-16T01:13:51;8.57;;;5.50;;
37131;SDS011;23035;50.032;21.978;2024-01-16T01:18:56;10.27;;;5.93;;
37131;SDS011;23035;50.032;21.978;2024-01-16T01:24:01;14.00;;;6.50;;
37131;SDS011;23035;50.032;21.978;2024-01-16T01:29:07;12.10;;;5.60;;
37131;SDS011;23035;50.032;21.978;2024-01-16T01:34:12;8.88;;;5.38;;
37131;SDS011;23035;50.032;21.978;2024-01-16T01:39:18;7.65;;;4.72;;
37131;SDS011;23035;50.032;21.978;2024-01-16T01:44:24;8.57;;;4.95;;
37131;SDS011;23035;50.032;21.978;2024-01-16T01:54:35;11.13;;;5.47;;
37131;SDS011;23035;50.032;21.978;2024-01-16T01:59:42;10.93;;;5.30;;
37131;SDS011;23035;50.032;21.978;2024-01-16T02:04:47;9.20;;;5.45;;
37131;SDS011;23035;50.032;21.978;2024-01-16T02:09:51;9.75;;;4.85;;
37131;SDS011;23035;50.032;21.978;2024-01-16T02:14:57;10.02;;;5.50;;
37131;SDS011;23035;50.032;21.978;2024-01-16T02:20:02;7.95;;;4.88;;
37131;SDS011;23035;50.032;21.978;2024-01-16T02:25:09;9.93;;;5.85;;
37131;SDS011;23035;50.032;21.978;2024-01-16T02:30:14;9.50;;;5.68;;
37131;SDS011;23035;50.032;21.978;2024-01-16T02:35:18;8.88;;;5.60;;
37131;SDS011;23035;50.032;21.978;2024-01-16T02:40:24;9.55;;;5.30;;
37131;SDS011;23035;50.032;21.978;2024-01-16T02:50:32;9.40;;;5.10;;
37131;SDS011;23035;50.032;21.978;2024-01-16T02:55:38;9.27;;;5.45;;
37131;SDS011;23035;50.032;21.978;2024-01-16T03:05:46;8.70;;;6.05;;
37131;SDS011;23035;50.032;21.978;2024-01-16T03:10:54;13.88;;;6.20;;
37131;SDS011;23035;50.032;21.978;2024-01-16T03:15:59;9.18;;;5.57;;
37131;SDS011;23035;50.032;21.978;2024-01-16T03:21:04;9.23;;;6.00;;
37131;SDS011;23035;50.032;21.978;2024-01-16T03:26:13;10.20;;;6.47;;
37131;SDS011;23035;50.032;21.978;2024-01-16T03:31:17;12.40;;;6.25;;
37131;SDS011;23035;50.032;21.978;2024-01-16T03:36:24;7.70;;;5.40;;
37131;SDS011;23035;50.032;21.978;2024-01-16T03:41:31;10.98;;;5.95;;
37131;SDS011;23035;50.032;21.978;2024-01-16T03:51:39;13.57;;;5.97;;
37131;SDS011;23035;50.032;21.978;2024-01-16T03:56:47;9.23;;;4.82;;
37131;SDS011;23035;50.032;21.978;2024-01-16T04:01:51;11.85;;;6.10;;
37131;SDS011;23035;50.032;21.978;2024-01-16T04:06:59;11.30;;;6.00;;
37131;SDS011;23035;50.032;21.978;2024-01-16T04:12:08;10.68;;;6.30;;
37131;SDS011;23035;50.032;21.978;2024-01-16T04:17:17;13.18;;;6.55;;
37131;SDS011;23035;50.032;21.978;2024-01-16T04:22:26;11.50;;;6.28;;
37131;SDS011;23035;50.032;21.978;2024-01-16T04:27:35;11.40;;;6.80;;
37131;SDS011;23035;50.032;21.978;2024-01-16T04:32:43;11.70;;;6.88;;
37131;SDS011;23035;50.032;21.978;2024-01-16T04:37:51;11.55;;;6.68;;
37131;SDS011;23035;50.032;21.978;2024-01-16T04:43:01;11.02;;;5.93;;
37131;SDS011;23035;50.032;21.978;2024-01-16T04:48:10;9.77;;;6.07;;
37131;SDS011;23035;50.032;21.978;2024-01-16T04:53:19;11.43;;;6.90;;
37131;SDS011;23035;50.032;21.978;2024-01-16T04:58:29;15.40;;;7.28;;
37131;SDS011;23035;50.032;21.978;2024-01-16T05:03:38;17.52;;;8.65;;
37131;SDS011;23035;50.032;21.978;2024-01-16T05:08:46;13.68;;;6.72;;
37131;SDS011;23035;50.032;21.978;2024-01-16T05:13:56;9.30;;;6.50;;
37131;SDS011;23035;50.032;21.978;2024-01-16T05:19:04;8.65;;;5.95;;
37131;SDS011;23035;50.032;21.978;2024-01-16T05:24:13;10.35;;;6.97;;
37131;SDS011;23035;50.032;21.978;2024-01-16T05:29:24;12.40;;;5.97;;
37131;SDS011;23035;50.032;21.978;2024-01-16T05:34:31;8.20;;;6.25;;
37131;SDS011;23035;50.032;21.978;2024-01-16T05:39:40;9.10;;;6.32;;
37131;SDS011;23035;50.032;21.978;2024-01-16T05:44:50;9.95;;;6.50;;
37131;SDS011;23035;50.032;21.978;2024-01-16T05:49:58;9.55;;;6.05;;
37131;SDS011;23035;50.032;21.978;2024-01-16T05:55:08;11.55;;;7.68;;
37131;SDS011;23035;50.032;21.978;2024-01-16T06:00:20;9.15;;;7.40;;
37131;SDS011;23035;50.032;21.978;2024-01-16T06:05:29;10.80;;;7.95;;
37131;SDS011;23035;50.032;21.978;2024-01-16T06:10:37;11.75;;;7.28;;
37131;SDS011;23035;50.032;21.978;2024-01-16T06:15:46;9.25;;;7.10;;
37131;SDS011;23035;50.032;21.978;2024-01-16T06:20:54;8.38;;;6.93;;
37131;SDS011;23035;50.032;21.978;2024-01-16T06:26:02;12.52;;;8.85;;
37131;SDS011;23035;50.032;21.978;2024-01-16T06:31:12;13.18;;;11.48;;
37131;SDS011;23035;50.032;21.978;2024-01-16T06:36:21;12.65;;;11.38;;
37131;SDS011;23035;50.032;21.978;2024-01-16T06:41:32;13.65;;;12.35;;
37131;SDS011;23035;50.032;21.978;2024-01-16T06:46:41;14.82;;;13.15;;
37131;SDS011;23035;50.032;21.978;2024-01-16T06:51:53;18.25;;;13.98;;
37131;SDS011;23035;50.032;21.978;2024-01-16T06:57:04;17.58;;;13.98;;
37131;SDS011;23035;50.032;21.978;2024-01-16T07:02:13;17.92;;;15.30;;
37131;SDS011;23035;50.032;21.978;2024-01-16T07:07:21;16.00;;;12.98;;
37131;SDS011;23035;50.032;21.978;2024-01-16T07:12:29;13.82;;;12.43;;
37131;SDS011;23035;50.032;21.978;2024-01-16T07:17:38;15.35;;;12.27;;
37131;SDS011;23035;50.032;21.978;2024-01-16T07:22:46;15.00;;;12.18;;
37131;SDS011;23035;50.032;21.978;2024-01-16T07:27:56;20.50;;;11.60;;
37131;SDS011;23035;50.032;21.978;2024-01-16T07:33:04;22.27;;;9.85;;
37131;SDS011;23035;50.032;21.978;2024-01-16T07:38:12;17.98;;;11.20;;
37131;SDS011;23035;50.032;21.978;2024-01-16T07:43:20;16.63;;;9.98;;
37131;SDS011;23035;50.032;21.978;2024-01-16T07:48:31;15.43;;;8.60;;
37131;SDS011;23035;50.032;21.978;2024-01-16T07:53:39;15.68;;;10.52;;
37131;SDS011;23035;50.032;21.978;2024-01-16T07:58:46;15.35;;;9.65;;
37131;SDS011;23035;50.032;21.978;2024-01-16T08:03:56;19.30;;;11.35;;
37131;SDS011;23035;50.032;21.978;2024-01-16T08:09:04;19.38;;;10.60;;
37131;SDS011;23035;50.032;21.978;2024-01-16T08:14:09;17.13;;;11.55;;
37131;SDS011;23035;50.032;21.978;2024-01-16T08:19:19;19.55;;;10.90;;
37131;SDS011;23035;50.032;21.978;2024-01-16T08:24:25;18.27;;;11.43;;
37131;SDS011;23035;50.032;21.978;2024-01-16T08:29:32;12.45;;;9.07;;
37131;SDS011;23035;50.032;21.978;2024-01-16T08:34:43;16.77;;;9.25;;
37131;SDS011;23035;50.032;21.978;2024-01-16T08:39:51;14.63;;;8.85;;
37131;SDS011;23035;50.032;21.978;2024-01-16T08:44:59;16.17;;;10.73;;
37131;SDS011;23035;50.032;21.978;2024-01-16T08:55:15;20.60;;;13.05;;
37131;SDS011;23035;50.032;21.978;2024-01-16T09:00:22;17.58;;;11.00;;
37131;SDS011;23035;50.032;21.978;2024-01-16T09:05:33;12.30;;;10.00;;
37131;SDS011;23035;50.032;21.978;2024-01-16T09:10:44;17.85;;;11.70;;
37131;SDS011;23035;50.032;21.978;2024-01-16T09:15:53;17.35;;;9.82;;
37131;SDS011;23035;50.032;21.978;2024-01-16T09:21:02;13.18;;;9.68;;
37131;SDS011;23035;50.032;21.978;2024-01-16T09:32:41;19.23;;;8.48;;
37131;SDS011;23035;50.032;21.978;2024-01-16T09:38:20;16.23;;;10.25;;
37131;SDS011;23035;50.032;21.978;2024-01-16T09:43:28;19.92;;;10.55;;
37131;SDS011;23035;50.032;21.978;2024-01-16T09:48:38;18.70;;;11.40;;
37131;SDS011;23035;50.032;21.978;2024-01-16T09:53:50;17.95;;;10.40;;
37131;SDS011;23035;50.032;21.978;2024-01-16T09:59:01;20.42;;;10.50;;
37131;SDS011;23035;50.032;21.978;2024-01-16T10:04:10;19.23;;;10.05;;
37131;SDS011;23035;50.032;21.978;2024-01-16T10:09:20;18.08;;;10.77;;
37131;SDS011;23035;50.032;21.978;2024-01-16T10:14:28;16.65;;;10.25;;
37131;SDS011;23035;50.032;21.978;2024-01-16T10:19:38;16.67;;;8.93;;
37131;SDS011;23035;50.032;21.978;2024-01-16T10:25:10;15.60;;;10.10;;
37131;SDS011;23035;50.032;21.978;2024-01-16T10:30:27;15.30;;;9.25;;
37131;SDS011;23035;50.032;21.978;2024-01-16T10:35:36;18.15;;;8.88;;
37131;SDS011;23035;50.032;21.978;2024-01-16T10:40:48;12.52;;;8.15;;
37131;SDS011;23035;50.032;21.978;2024-01-16T10:46:31;15.55;;;8.15;;
37131;SDS011;23035;50.032;21.978;2024-01-16T10:51:41;15.65;;;8.57;;
37131;SDS011;23035;50.032;21.978;2024-01-16T10:56:58;15.25;;;8.43;;
37131;SDS011;23035;50.032;21.978;2024-01-16T11:07:37;16.40;;;7.72;;
37131;SDS011;23035;50.032;21.978;2024-01-16T11:12:51;9.38;;;6.28;;
37131;SDS011;23035;50.032;21.978;2024-01-16T11:23:42;13.98;;;6.80;;
37131;SDS011;23035;50.032;21.978;2024-01-16T11:28:54;14.73;;;7.45;;
37131;SDS011;23035;50.032;21.978;2024-01-16T11:34:03;14.95;;;5.93;;
37131;SDS011;23035;50.032;21.978;2024-01-16T11:39:27;11.13;;;6.40;;
37131;SDS011;23035;50.032;21.978;2024-01-16T11:44:39;11.57;;;6.88;;
37131;SDS011;23035;50.032;21.978;2024-01-16T11:49:50;13.17;;;6.67;;
37131;SDS011;23035;50.032;21.978;2024-01-16T11:54:59;15.20;;;7.85;;
37131;SDS011;23035;50.032;21.978;2024-01-16T12:00:14;19.23;;;8.23;;
37131;SDS011;23035;50.032;21.978;2024-01-16T12:05:24;19.02;;;9.05;;
37131;SDS011;23035;50.032;21.978;2024-01-16T12:10:37;20.40;;;9.05;;
37131;SDS011;23035;50.032;21.978;2024-01-16T12:16:09;25.42;;;14.23;;
37131;SDS011;23035;50.032;21.978;2024-01-16T12:21:17;39.72;;;15.32;;
37131;SDS011;23035;50.032;21.978;2024-01-16T12:26:26;24.05;;;14.20;;
37131;SDS011;23035;50.032;21.978;2024-01-16T12:31:35;25.73;;;15.65;;
37131;SDS011;23035;50.032;21.978;2024-01-16T12:36:42;26.73;;;16.80;;
37131;SDS011;23035;50.032;21.978;2024-01-16T12:41:50;27.85;;;16.98;;
37131;SDS011;23035;50.032;21.978;2024-01-16T12:47:00;24.20;;;15.25;;
37131;SDS011;23035;50.032;21.978;2024-01-16T12:52:17;30.45;;;18.20;;
37131;SDS011;23035;50.032;21.978;2024-01-16T12:57:26;24.63;;;18.15;;
37131;SDS011;23035;50.032;21.978;2024-01-16T13:02:34;24.08;;;16.10;;
37131;SDS011;23035;50.032;21.978;2024-01-16T13:07:41;28.75;;;20.83;;
37131;SDS011;23035;50.032;21.978;2024-01-16T13:12:46;28.35;;;19.00;;
37131;SDS011;23035;50.032;21.978;2024-01-16T13:17:52;35.30;;;21.50;;
37131;SDS011;23035;50.032;21.978;2024-01-16T13:23:00;26.60;;;16.77;;
37131;SDS011;23035;50.032;21.978;2024-01-16T13:28:06;29.80;;;18.00;;
37131;SDS011;23035;50.032;21.978;2024-01-16T13:33:14;25.15;;;16.77;;
37131;SDS011;23035;50.032;21.978;2024-01-16T13:38:19;29.73;;;18.48;;
37131;SDS011;23035;50.032;21.978;2024-01-16T13:43:25;34.47;;;20.48;;
37131;SDS011;23035;50.032;21.978;2024-01-16T13:48:32;19.00;;;14.27;;
37131;SDS011;23035;50.032;21.978;2024-01-16T13:53:40;21.73;;;14.93;;
37131;SDS011;23035;50.032;21.978;2024-01-16T13:58:48;19.20;;;14.30;;
37131;SDS011;23035;50.032;21.978;2024-01-16T14:03:58;20.40;;;15.35;;
37131;SDS011;23035;50.032;21.978;2024-01-16T14:09:06;16.23;;;13.65;;
37131;SDS011;23035;50.032;21.978;2024-01-16T14:14:15;19.58;;;13.98;;
37131;SDS011;23035;50.032;21.978;2024-01-16T14:19:25;28.20;;;17.10;;
37131;SDS011;23035;50.032;21.978;2024-01-16T14:24:38;39.72;;;21.58;;
37131;SDS011;23035;50.032;21.978;2024-01-16T14:29:46;45.10;;;24.73;;
37131;SDS011;23035;50.032;21.978;2024-01-16T14:34:54;52.85;;;27.90;;
37131;SDS011;23035;50.032;21.978;2024-01-16T14:40:03;63.28;;;30.25;;
37131;SDS011;23035;50.032;21.978;2024-01-16T14:45:17;47.33;;;26.38;;
37131;SDS011;23035;50.032;21.978;2024-01-16T14:50:28;50.25;;;28.05;;
37131;SDS011;23035;50.032;21.978;2024-01-16T14:55:34;47.42;;;25.67;;
37131;SDS011;23035;50.032;21.978;2024-01-16T15:00:41;42.83;;;25.75;;
37131;SDS011;23035;50.032;21.978;2024-01-16T15:05:51;49.58;;;28.15;;
37131;SDS011;23035;50.032;21.978;2024-01-16T15:10:58;51.65;;;27.60;;
37131;SDS011;23035;50.032;21.978;2024-01-16T15:16:07;44.10;;;27.33;;
37131;SDS011;23035;50.032;21.978;2024-01-16T15:21:18;48.95;;;27.55;;
37131;SDS011;23035;50.032;21.978;2024-01-16T15:26:25;51.78;;;29.75;;
37131;SDS011;23035;50.032;21.978;2024-01-16T15:31:37;44.47;;;26.13;;
37131;SDS011;23035;50.032;21.978;2024-01-16T15:36:46;59.83;;;31.85;;
37131;SDS011;23035;50.032;21.978;2024-01-16T15:41:51;51.33;;;27.40;;
37131;SDS011;23035;50.032;21.978;2024-01-16T15:46:58;50.17;;;27.98;;
37131;SDS011;23035;50.032;21.978;2024-01-16T15:52:06;54.30;;;29.67;;
37131;SDS011;23035;50.032;21.978;2024-01-16T15:57:14;62.80;;;34.08;;
37131;SDS011;23035;50.032;21.978;2024-01-16T16:02:23;64.53;;;33.40;;
37131;SDS011;23035;50.032;21.978;2024-01-16T16:07:30;94.55;;;44.45;;
37131;SDS011;23035;50.032;21.978;2024-01-16T16:12:40;97.00;;;45.85;;
37131;SDS011;23035;50.032;21.978;2024-01-16T16:17:48;73.68;;;36.30;;
37131;SDS011;23035;50.032;21.978;2024-01-16T16:23:04;72.82;;;38.88;;
37131;SDS011;23035;50.032;21.978;2024-01-16T16:28:12;93.28;;;43.42;;
37131;SDS011;23035;50.032;21.978;2024-01-16T16:33:20;75.65;;;38.58;;
37131;SDS011;23035;50.032;21.978;2024-01-16T16:38:26;80.13;;;40.33;;
37131;SDS011;23035;50.032;21.978;2024-01-16T16:43:32;71.32;;;34.78;;
37131;SDS011;23035;50.032;21.978;2024-01-16T16:48:37;63.97;;;32.60;;
37131;SDS011;23035;50.032;21.978;2024-01-16T16:53:48;65.75;;;32.00;;
37131;SDS011;23035;50.032;21.978;2024-01-16T16:58:54;42.42;;;23.05;;
37131;SDS011;23035;50.032;21.978;2024-01-16T17:03:59;49.63;;;27.60;;
37131;SDS011;23035;50.032;21.978;2024-01-16T17:09:16;58.67;;;30.50;;
37131;SDS011;23035;50.032;21.978;2024-01-16T17:14:24;59.30;;;31.02;;
37131;SDS011;23035;50.032;21.978;2024-01-16T17:19:29;72.88;;;35.72;;
37131;SDS011;23035;50.032;21.978;2024-01-16T17:24:36;71.80;;;35.47;;
37131;SDS011;23035;50.032;21.978;2024-01-16T17:29:43;73.93;;;34.58;;
37131;SDS011;23035;50.032;21.978;2024-01-16T17:34:48;80.30;;;33.97;;
37131;SDS011;23035;50.032;21.978;2024-01-16T17:39:58;61.65;;;30.17;;
37131;SDS011;23035;50.032;21.978;2024-01-16T17:45:08;55.35;;;27.45;;
37131;SDS011;23035;50.032;21.978;2024-01-16T17:50:21;86.95;;;39.30;;
37131;SDS011;23035;50.032;21.978;2024-01-16T17:55:53;82.43;;;39.20;;
37131;SDS011;23035;50.032;21.978;2024-01-16T18:00:58;78.88;;;31.33;;
37131;SDS011;23035;50.032;21.978;2024-01-16T18:06:10;58.60;;;26.30;;
37131;SDS011;23035;50.032;21.978;2024-01-16T18:11:31;60.55;;;28.17;;
37131;SDS011;23035;50.032;21.978;2024-01-16T18:16:39;51.53;;;26.25;;
37131;SDS011;23035;50.032;21.978;2024-01-16T18:21:44;47.33;;;24.98;;
37131;SDS011;23035;50.032;21.978;2024-01-16T18:26:50;48.50;;;24.85;;
37131;SDS011;23035;50.032;21.978;2024-01-16T18:31:56;57.92;;;26.35;;
37131;SDS011;23035;50.032;21.978;2024-01-16T18:37:03;59.83;;;27.55;;
37131;SDS011;23035;50.032;21.978;2024-01-16T18:42:11;40.97;;;23.15;;
37131;SDS011;23035;50.032;21.978;2024-01-16T18:47:28;37.67;;;21.50;;
37131;SDS011;23035;50.032;21.978;2024-01-16T18:52:39;42.30;;;22.02;;
37131;SDS011;23035;50.032;21.978;2024-01-16T18:58:58;38.53;;;21.98;;
37131;SDS011;23035;50.032;21.978;2024-01-16T19:04:11;47.55;;;22.15;;
37131;SDS011;23035;50.032;21.978;2024-01-16T19:09:21;42.85;;;22.27;;
37131;SDS011;23035;50.032;21.978;2024-01-16T19:14:27;41.00;;;21.88;;
37131;SDS011;23035;50.032;21.978;2024-01-16T19:19:34;39.22;;;19.65;;
37131;SDS011;23035;50.032;21.978;2024-01-16T19:24:45;40.38;;;21.55;;
37131;SDS011;23035;50.032;21.978;2024-01-16T19:29:56;40.95;;;20.95;;
37131;SDS011;23035;50.032;21.978;2024-01-16T19:35:20;51.63;;;25.05;;
37131;SDS011;23035;50.032;21.978;2024-01-16T19:40:27;118.05;;;45.80;;
37131;SDS011;23035;50.032;21.978;2024-01-16T19:45:32;69.13;;;32.47;;
37131;SDS011;23035;50.032;21.978;2024-01-16T19:50:38;93.18;;;39.35;;
37131;SDS011;23035;50.032;21.978;2024-01-16T19:55:43;117.13;;;44.35;;
37131;SDS011;23035;50.032;21.978;2024-01-16T20:00:50;111.22;;;44.13;;
37131;SDS011;23035;50.032;21.978;2024-01-16T20:05:55;76.40;;;32.40;;
37131;SDS011;23035;50.032;21.978;2024-01-16T20:10:59;129.25;;;46.25;;
37131;SDS011;23035;50.032;21.978;2024-01-16T20:16:05;56.53;;;26.05;;
37131;SDS011;23035;50.032;21.978;2024-01-16T20:21:11;55.22;;;24.77;;
37131;SDS011;23035;50.032;21.978;2024-01-16T20:26:15;47.40;;;21.00;;
37131;SDS011;23035;50.032;21.978;2024-01-16T20:31:21;49.07;;;23.83;;
37131;SDS011;23035;50.032;21.978;2024-01-16T20:36:26;91.72;;;37.42;;
37131;SDS011;23035;50.032;21.978;2024-01-16T20:41:32;70.53;;;29.40;;
37131;SDS011;23035;50.032;21.978;2024-01-16T20:46:37;79.75;;;35.38;;
37131;SDS011;23035;50.032;21.978;2024-01-16T20:51:42;47.85;;;23.67;;
37131;SDS011;23035;50.032;21.978;2024-01-16T20:56:47;40.58;;;19.20;;
37131;SDS011;23035;50.032;21.978;2024-01-16T21:01:54;45.60;;;20.97;;
37131;SDS011;23035;50.032;21.978;2024-01-16T21:07:02;64.32;;;28.20;;
37131;SDS011;23035;50.032;21.978;2024-01-16T21:12:11;75.05;;;33.85;;
37131;SDS011;23035;50.032;21.978;2024-01-16T21:17:18;80.55;;;37.85;;
37131;SDS011;23035;50.032;21.978;2024-01-16T21:22:22;81.63;;;37.88;;
37131;SDS011;23035;50.032;21.978;2024-01-16T21:27:39;74.07;;;34.87;;
37131;SDS011;23035;50.032;21.978;2024-01-16T21:32:44;71.05;;;33.78;;
37131;SDS011;23035;50.032;21.978;2024-01-16T21:37:49;85.57;;;39.47;;
37131;SDS011;23035;50.032;21.978;2024-01-16T21:42:53;102.20;;;46.15;;
37131;SDS011;23035;50.032;21.978;2024-01-16T21:48:00;104.88;;;48.05;;
37131;SDS011;23035;50.032;21.978;2024-01-16T21:53:06;103.32;;;46.92;;
37131;SDS011;23035;50.032;21.978;2024-01-16T21:58:15;132.02;;;54.28;;
37131;SDS011;23035;50.032;21.978;2024-01-16T22:03:22;130.13;;;57.27;;
37131;SDS011;23035;50.032;21.978;2024-01-16T22:08:26;123.00;;;53.25;;
37131;SDS011;23035;50.032;21.978;2024-01-16T22:18:38;133.90;;;58.15;;
37131;SDS011;23035;50.032;21.978;2024-01-16T22:23:47;147.07;;;65.15;;
37131;SDS011;23035;50.032;21.978;2024-01-16T22:28:53;108.30;;;48.05;;
37131;SDS011;23035;50.032;21.978;2024-01-16T22:33:59;81.43;;;37.17;;
37131;SDS011;23035;50.032;21.978;2024-01-16T22:39:04;69.70;;;33.45;;
37131;SDS011;23035;50.032;21.978;2024-01-16T22:44:08;87.38;;;40.38;;
37131;SDS011;23035;50.032;21.978;2024-01-16T22:49:14;79.28;;;38.95;;
37131;SDS011;23035;50.032;21.978;2024-01-16T22:54:19;89.63;;;42.83;;
37131;SDS011;23035;50.032;21.978;2024-01-16T22:59:24;97.57;;;44.97;;
37131;SDS011;23035;50.032;21.978;2024-01-16T23:04:29;89.78;;;41.95;;
37131;SDS011;23035;50.032;21.978;2024-01-16T23:09:34;80.30;;;38.47;;
37131;SDS011;23035;50.032;21.978;2024-01-16T23:14:40;92.30;;;42.40;;
37131;SDS011;23035;50.032;21.978;2024-01-16T23:19:46;95.97;;;43.07;;
37131;SDS011;23035;50.032;21.978;2024-01-16T23:24:51;97.43;;;44.65;;
37131;SDS011;23035;50.032;21.978;2024-01-16T23:29:55;100.32;;;44.17;;
37131;SDS011;23035;50.032;21.978;2024-01-16T23:35:02;122.23;;;51.43;;
37131;SDS011;23035;50.032;21.978;2024-01-16T23:40:08;111.60;;;50.38;;
37131;SDS011;23035;50.032;21.978;2024-01-16T23:45:15;147.10;;;61.15;;
37131;SDS011;23035;50.032;21.978;2024-01-16T23:50:33;137.45;;;59.03;;
37131;SDS011;23035;50.032;21.978;2024-01-16T23:55:39;99.30;;;44.95;;
